Doe Run, Missouri
Current Conditions -  °F | °C
As of 4:15 PM on Saturday 27 Dec 2014 (Local Time) from KFAM Reporting Station
Overcast Overcast  
Wind Chill: 34°   Ceiling: 800
Heat Index: 39°   Visibility: 3mi
Dew Point: 36°   Wind: 7mph
Humidity: 87%   Direction: 140°SE
Pressure: 30.13"   Gusts: NA
Location:  37.74°N, 90.5°W
Report Text: KFAM 272215Z AUTO 14006KT 3SM BKN008 BKN035 OVC050 04/02 A3013 RMK AO1 P0002
Loading
Personal Weather Stations






























Interactive Weather Map New forecast layout! Learn more

10-Day Weather Forecast

Advertisements
Track Severe Weather on mobile